Tapps Island, Washington
Current Conditions -  °F | °C
As of 8:58 PM on Sunday 21 Dec 2014 (Local Time) from KTCM Reporting Station
Overcast Overcast  
Wind Chill: 46°   Ceiling: 11000
Heat Index: 49°   Visibility: 10mi
Dew Point: 49°   Wind: 8mph
Humidity: 99%   Direction: 210°SSW
Pressure: 30.11"   Gusts: NA
Location:  47.1874°N, 122.164°W
Report Text: KTCM 220458Z AUTO 21007KT 10SM OVC110 10/09 A3011 RMK AO2 SLP201 T00960094
Loading
Personal Weather Stations






























Interactive Weather Map New forecast layout! Learn more

10-Day Weather Forecast

Advertisements
Track Severe Weather on mobile